createdAt,value
2019-01-18T00:01:37.769Z,2.17
2019-01-18T00:04:08.355Z,2.19
2019-01-18T00:06:39.127Z,2.14
2019-01-18T00:09:12.225Z,2.19
2019-01-18T00:11:42.836Z,2.24
2019-01-18T00:14:13.487Z,2.23
2019-01-18T00:16:44.228Z,2.31
2019-01-18T00:19:15.074Z,2.26
2019-01-18T00:24:57.912Z,2.37
2019-01-18T00:33:27.557Z,2.26
2019-01-18T00:36:17.026Z,2.31
2019-01-18T00:38:47.460Z,2.34
2019-01-18T00:44:27.503Z,2.18
2019-01-18T00:47:17.019Z,2.25
2019-01-18T00:49:47.618Z,2.16
2019-01-18T00:52:56.327Z,2.23
2019-01-18T01:01:38.189Z,2.11
2019-01-18T01:04:08.645Z,2.09
2019-01-18T01:06:39.044Z,2.18
2019-01-18T01:15:51.895Z,2.05
2019-01-18T01:18:22.510Z,2.09
2019-01-18T01:24:16.015Z,2.11
2019-01-18T01:27:12.001Z,2.02
2019-01-18T01:29:43.986Z,2.06
2019-01-18T01:32:14.445Z,1.96
2019-01-18T01:34:58.091Z,1.93
2019-01-18T01:37:28.556Z,1.90
2019-01-18T01:40:51.913Z,1.97
2019-01-18T01:46:37.474Z,1.93
2019-01-18T01:49:08.196Z,2.00
2019-01-18T01:51:57.984Z,1.96
2019-01-18T01:54:49.043Z,1.97
2019-01-18T01:57:40.140Z,2.02
2019-01-18T02:00:33.363Z,1.99
2019-01-18T02:03:24.576Z,1.93
2019-01-18T02:08:58.007Z,1.92
2019-01-18T02:17:34.018Z,1.81
2019-01-18T02:20:15.847Z,1.82
2019-01-18T02:22:46.830Z,1.85
2019-01-18T02:25:17.994Z,1.83
2019-01-18T02:27:51.008Z,1.90
2019-01-18T02:30:24.109Z,1.79
2019-01-18T02:41:09.451Z,1.70
2019-01-18T02:43:39.840Z,1.79
2019-01-18T02:48:56.079Z,1.67
2019-01-18T02:51:26.689Z,1.65
2019-01-18T02:53:57.277Z,1.59
2019-01-18T02:56:46.735Z,1.60
2019-01-18T03:02:39.278Z,1.55
2019-01-18T03:08:13.808Z,1.68
2019-01-18T03:16:47.323Z,1.68
2019-01-18T03:22:38.970Z,1.55
2019-01-18T03:25:14.480Z,1.56
2019-01-18T03:28:03.704Z,1.45
2019-01-18T03:30:34.224Z,1.42
2019-01-18T03:36:08.203Z,1.47
2019-01-18T03:41:41.417Z,1.41
2019-01-18T03:44:12.057Z,1.47
2019-01-18T03:52:27.668Z,1.34
2019-01-18T03:54:58.195Z,1.29
2019-01-18T04:00:52.310Z,1.26
2019-01-18T04:03:43.416Z,1.21
2019-01-18T04:06:13.871Z,1.21
2019-01-18T04:08:45.344Z,1.18
2019-01-18T04:11:34.837Z,1.13
2019-01-18T04:17:10.193Z,1.17
2019-01-18T04:19:40.668Z,1.19
2019-01-18T04:22:14.210Z,1.23
2019-01-18T04:27:49.628Z,1.23
2019-01-18T04:30:33.045Z,1.21
2019-01-18T04:33:21.762Z,1.21
2019-01-18T04:39:08.883Z,1.24
2019-01-18T04:44:31.077Z,1.19
2019-01-18T04:47:22.388Z,1.18
2019-01-18T04:52:37.296Z,1.17
2019-01-18T04:55:30.007Z,1.13
2019-01-18T05:03:53.706Z,1.03
2019-01-18T05:06:24.250Z,1.03
2019-01-18T05:09:21.923Z,0.99
2019-01-18T05:12:12.843Z,1.00
2019-01-18T05:14:43.333Z,0.94
2019-01-18T05:17:32.605Z,0.92
2019-01-18T05:20:22.023Z,0.90
2019-01-18T05:26:13.752Z,0.91
2019-01-18T05:31:47.855Z,0.85
2019-01-18T05:34:18.845Z,0.85
2019-01-18T05:36:49.963Z,0.87
2019-01-18T05:39:41.526Z,0.89
2019-01-18T05:42:12.580Z,0.88
2019-01-18T05:47:59.306Z,0.90
2019-01-18T05:50:31.490Z,0.95
2019-01-18T05:56:23.317Z,1.12
2019-01-18T05:58:54.042Z,1.24
2019-01-18T06:01:28.262Z,1.30
2019-01-18T06:03:59.513Z,1.32
2019-01-18T06:09:33.579Z,1.44
2019-01-18T06:12:43.461Z,1.51
2019-01-18T06:15:27.522Z,1.53
2019-01-18T06:17:58.088Z,1.54
2019-01-18T06:20:39.932Z,1.57
2019-01-18T06:23:10.733Z,1.57
2019-01-18T06:25:41.170Z,1.51
2019-01-18T06:28:11.836Z,1.48
2019-01-18T06:30:42.391Z,1.47
2019-01-18T06:33:34.259Z,1.40
2019-01-18T06:39:46.000Z,1.36
2019-01-18T06:42:16.782Z,1.28
2019-01-18T06:48:00.999Z,1.19
2019-01-18T06:53:36.265Z,1.11
2019-01-18T06:56:06.733Z,1.10
2019-01-18T07:02:02.880Z,1.02
2019-01-18T07:10:38.845Z,0.96
2019-01-18T07:16:23.513Z,0.91
2019-01-18T07:18:53.894Z,0.88
2019-01-18T07:22:02.520Z,0.86
2019-01-18T07:24:33.334Z,0.84
2019-01-18T07:27:05.456Z,0.83
2019-01-18T07:32:31.253Z,0.91
2019-01-18T07:35:01.906Z,0.96
2019-01-18T07:40:34.443Z,0.96
2019-01-18T07:43:05.024Z,0.97
2019-01-18T07:48:39.333Z,1.03
2019-01-18T07:51:10.867Z,1.06
2019-01-18T07:53:41.773Z,1.06
2019-01-18T07:56:33.496Z,1.03
2019-01-18T07:59:04.173Z,1.02
2019-01-18T08:10:41.701Z,0.99
2019-01-18T08:13:31.160Z,0.98
2019-01-18T08:16:21.070Z,1.00
2019-01-18T08:24:37.121Z,1.05
2019-01-18T08:27:07.568Z,1.04
2019-01-18T08:29:50.085Z,1.03
2019-01-18T08:32:31.836Z,1.01
2019-01-18T08:35:02.485Z,1.02
2019-01-18T08:37:33.000Z,1.05
2019-01-18T08:40:03.616Z,1.04
2019-01-18T08:42:34.018Z,1.07
2019-01-18T08:45:06.357Z,1.08
2019-01-18T08:47:37.061Z,1.11
2019-01-18T08:50:10.726Z,1.13
2019-01-18T08:52:41.127Z,1.19
2019-01-18T08:55:51.069Z,1.28
2019-01-18T08:58:21.962Z,1.32
2019-01-18T09:00:52.514Z,1.38
2019-01-18T09:03:23.588Z,1.40
2019-01-18T09:05:56.369Z,1.51
2019-01-18T09:09:06.151Z,1.53
2019-01-18T09:11:38.014Z,1.54
2019-01-18T09:17:11.367Z,1.64
2019-01-18T09:19:43.968Z,1.68
2019-01-18T09:22:16.527Z,1.68
2019-01-18T09:24:47.173Z,1.68
2019-01-18T09:27:30.808Z,1.60
2019-01-18T09:30:01.298Z,1.59
2019-01-18T09:32:32.237Z,1.61
2019-01-18T09:44:10.941Z,1.73
2019-01-18T09:47:00.353Z,1.75
2019-01-18T09:49:49.752Z,1.86
2019-01-18T09:52:20.360Z,1.99
2019-01-18T09:54:50.990Z,2.05
2019-01-18T09:57:21.965Z,2.11
2019-01-18T10:00:13.028Z,2.23
2019-01-18T10:02:45.932Z,2.31
2019-01-18T10:10:44.335Z,2.69
2019-01-18T10:15:56.936Z,2.54
2019-01-18T10:18:27.389Z,2.44
2019-01-18T10:23:52.519Z,2.34
2019-01-18T10:26:39.739Z,2.32
2019-01-18T10:41:33.417Z,2.43
2019-01-18T10:46:49.460Z,2.55
2019-01-18T10:49:39.392Z,2.52
2019-01-18T10:52:09.885Z,2.51
2019-01-18T10:54:40.302Z,2.56
2019-01-18T10:57:10.735Z,2.61
2019-01-18T11:00:00.431Z,2.69
2019-01-18T11:02:30.905Z,2.71
2019-01-18T11:05:01.322Z,2.72
2019-01-18T11:07:31.831Z,2.76
2019-01-18T11:10:21.202Z,2.82
2019-01-18T11:13:13.635Z,2.85
2019-01-18T11:15:54.831Z,2.95
2019-01-18T11:18:25.202Z,3.04
2019-01-18T11:21:03.207Z,3.13
2019-01-18T11:23:33.740Z,3.16
2019-01-18T11:34:45.923Z,3.20
2019-01-18T11:37:18.646Z,3.21
2019-01-18T11:42:51.767Z,3.30
2019-01-18T11:45:22.651Z,3.38
2019-01-18T11:47:53.124Z,3.46
2019-01-18T11:53:30.393Z,3.55
2019-01-18T11:56:22.363Z,3.66
2019-01-18T12:01:57.431Z,3.75
2019-01-18T12:04:50.430Z,3.75
2019-01-18T12:07:23.999Z,3.75
2019-01-18T12:09:54.411Z,3.75
2019-01-18T12:15:48.028Z,3.63
2019-01-18T12:18:18.567Z,3.54
2019-01-18T12:23:47.315Z,3.64
2019-01-18T12:26:17.976Z,3.74
2019-01-18T12:28:48.540Z,3.80
2019-01-18T12:37:05.548Z,6.30
2019-01-18T12:39:36.188Z,7.36
2019-01-18T12:42:06.618Z,7.78
2019-01-18T12:44:37.069Z,8.39
2019-01-18T12:47:07.776Z,7.90
2019-01-18T12:49:38.404Z,7.90
2019-01-18T12:52:11.245Z,9.24
2019-01-18T12:54:41.717Z,9.80
2019-01-18T12:57:32.822Z,9.29
2019-01-18T13:00:03.260Z,8.93
2019-01-18T13:05:47.911Z,8.62
2019-01-18T13:08:18.876Z,8.46
2019-01-18T13:10:49.398Z,8.92
2019-01-18T13:13:19.874Z,9.28
2019-01-18T13:16:28.504Z,9.55
2019-01-18T13:19:20.009Z,9.51
2019-01-18T13:21:50.919Z,9.60
2019-01-18T13:24:21.517Z,9.45
2019-01-18T13:26:52.034Z,8.81
2019-01-18T13:32:57.791Z,8.06
2019-01-18T13:35:28.206Z,8.19
2019-01-18T13:37:58.914Z,8.12
2019-01-18T13:40:50.002Z,7.61
2019-01-18T13:46:14.112Z,6.32
2019-01-18T13:51:50.536Z,5.54
2019-01-18T13:54:41.493Z,5.20
2019-01-18T14:00:14.230Z,4.90
2019-01-18T14:02:48.633Z,4.75
2019-01-18T14:08:26.168Z,4.57
2019-01-18T14:14:11.622Z,4.44
2019-01-18T14:31:30.125Z,4.05
2019-01-18T14:34:00.839Z,4.00
2019-01-18T14:36:31.952Z,3.95
2019-01-18T14:42:04.910Z,3.87
2019-01-18T14:50:41.623Z,3.73
2019-01-18T14:53:43.029Z,3.65
2019-01-18T14:56:13.540Z,3.64
2019-01-18T15:02:04.454Z,3.52
2019-01-18T15:04:35.121Z,3.41
2019-01-18T15:07:05.624Z,3.36
2019-01-18T15:09:36.278Z,3.35
2019-01-18T15:12:06.762Z,3.34
2019-01-18T15:18:01.482Z,3.23
2019-01-18T15:20:32.419Z,3.16
2019-01-18T15:28:46.722Z,2.98
2019-01-18T15:31:17.195Z,2.99
2019-01-18T15:33:47.639Z,2.93
2019-01-18T15:39:31.850Z,2.90
2019-01-18T15:48:27.427Z,2.71
2019-01-18T15:51:17.037Z,2.66
2019-01-18T15:54:32.132Z,2.70
2019-01-18T15:57:02.649Z,2.58
2019-01-18T16:02:24.319Z,2.49
2019-01-18T16:04:54.972Z,2.45
2019-01-18T16:07:25.341Z,2.42
2019-01-18T16:16:22.631Z,2.31
2019-01-18T16:18:53.856Z,2.26
2019-01-18T16:24:05.933Z,2.27
2019-01-18T16:26:36.413Z,2.19
2019-01-18T16:29:06.838Z,2.24
2019-01-18T16:31:37.358Z,2.19
2019-01-18T16:34:07.711Z,2.14
2019-01-18T16:36:38.206Z,2.12
2019-01-18T16:45:17.981Z,2.05
2019-01-18T16:48:07.590Z,2.00
2019-01-18T16:50:38.120Z,1.99
2019-01-18T16:55:57.833Z,1.93
2019-01-18T17:04:34.468Z,1.84
2019-01-18T17:07:04.919Z,1.79
2019-01-18T17:09:55.922Z,1.77
2019-01-18T17:12:26.516Z,1.77
2019-01-18T17:15:15.807Z,1.71
2019-01-18T17:17:46.160Z,1.68
2019-01-18T17:20:19.408Z,1.68
2019-01-18T17:22:50.900Z,1.68
2019-01-18T17:25:40.311Z,1.70
2019-01-18T17:28:11.055Z,1.68
2019-01-18T17:30:42.662Z,1.68
2019-01-18T17:33:37.132Z,1.65
2019-01-18T17:40:00.490Z,1.59
2019-01-18T17:42:53.020Z,1.59
2019-01-18T17:46:01.648Z,1.55
2019-01-18T17:49:10.176Z,1.50
2019-01-18T17:52:18.808Z,1.49
2019-01-18T17:55:19.837Z,1.48
2019-01-18T17:58:28.364Z,1.42
2019-01-18T18:01:38.190Z,1.42
2019-01-18T18:04:47.223Z,1.43
2019-01-18T18:07:56.550Z,1.41
2019-01-18T18:10:51.922Z,1.40
2019-01-18T18:14:02.321Z,1.38
2019-01-18T18:16:57.166Z,1.39
2019-01-18T18:20:05.801Z,1.34
2019-01-18T18:23:14.504Z,1.34
2019-01-18T18:26:07.988Z,1.32
2019-01-18T18:29:16.520Z,1.33
2019-01-18T18:32:25.381Z,1.34
2019-01-18T18:35:34.038Z,1.31
2019-01-18T18:38:42.639Z,1.33
2019-01-18T18:41:51.152Z,1.32
2019-01-18T18:44:59.659Z,1.38
2019-01-18T18:48:08.260Z,1.38
2019-01-18T18:51:16.878Z,1.38
2019-01-18T18:54:25.441Z,1.39
2019-01-18T18:57:51.198Z,1.36
2019-01-18T19:00:59.805Z,1.33
2019-01-18T19:04:03.758Z,1.35
2019-01-18T19:06:59.079Z,1.32
2019-01-18T19:10:07.698Z,1.30
2019-01-18T19:13:16.586Z,1.26
2019-01-18T19:16:10.387Z,1.29
2019-01-18T19:19:19.489Z,1.26
2019-01-18T19:22:05.859Z,1.25
2019-01-18T19:25:14.477Z,1.26
2019-01-18T19:28:23.340Z,1.28
2019-01-18T19:31:32.105Z,1.22
2019-01-18T19:34:40.575Z,1.22
2019-01-18T19:37:49.278Z,1.21
2019-01-18T19:40:57.841Z,1.23
2019-01-18T19:44:06.932Z,1.22
2019-01-18T19:46:48.853Z,1.23
2019-01-18T19:49:58.841Z,1.22
2019-01-18T19:52:53.552Z,1.19
2019-01-18T19:56:01.734Z,1.19
2019-01-18T19:58:58.356Z,1.18
2019-01-18T20:02:07.454Z,1.20
2019-01-18T20:05:16.100Z,1.21
2019-01-18T20:08:24.706Z,1.21
2019-01-18T20:14:55.094Z,1.18
2019-01-18T20:18:03.824Z,1.18
2019-01-18T20:24:22.951Z,1.22
2019-01-18T20:27:33.574Z,1.21
2019-01-18T20:30:42.479Z,1.23
2019-01-18T20:33:51.232Z,1.27
2019-01-18T20:40:05.608Z,1.22
2019-01-18T20:43:14.243Z,1.22
2019-01-18T20:46:22.801Z,1.25
2019-01-18T20:49:32.889Z,1.28
2019-01-18T20:52:41.812Z,1.25
2019-01-18T20:56:09.342Z,1.25
2019-01-18T20:59:17.890Z,1.30
2019-01-18T21:02:26.522Z,1.26
2019-01-18T21:05:09.383Z,1.25
2019-01-18T21:08:17.936Z,1.25
2019-01-18T21:11:26.527Z,1.24
2019-01-18T21:14:35.047Z,1.24
2019-01-18T21:17:49.726Z,1.23
2019-01-18T21:20:58.632Z,1.19
2019-01-18T21:27:13.383Z,1.21
2019-01-18T21:33:32.155Z,1.19
2019-01-18T21:36:41.143Z,1.17
2019-01-18T21:39:49.841Z,1.19
2019-01-18T21:42:58.346Z,1.17
2019-01-18T21:46:06.891Z,1.15
2019-01-18T21:49:16.112Z,1.14
2019-01-18T21:52:20.767Z,1.15
2019-01-18T21:55:29.604Z,1.15
2019-01-18T21:58:21.941Z,1.16
2019-01-18T22:01:05.328Z,1.14
2019-01-18T22:04:14.026Z,1.12
2019-01-18T22:07:13.887Z,1.13
2019-01-18T22:10:12.487Z,1.12
2019-01-18T22:16:38.329Z,1.14
2019-01-18T22:19:46.898Z,1.12
2019-01-18T22:22:55.438Z,1.11
2019-01-18T22:26:04.076Z,1.14
2019-01-18T22:29:01.111Z,1.13
2019-01-18T22:35:32.463Z,1.18
2019-01-18T22:38:25.886Z,1.18
2019-01-18T22:44:56.485Z,1.14
2019-01-18T22:48:05.620Z,1.10
2019-01-18T22:51:14.313Z,1.10
2019-01-18T22:54:22.952Z,1.05
2019-01-18T22:57:31.608Z,1.09
2019-01-18T23:00:59.022Z,1.10
2019-01-18T23:03:53.215Z,1.06
2019-01-18T23:09:56.568Z,1.01
2019-01-18T23:13:05.072Z,0.99
2019-01-18T23:16:13.623Z,0.94
2019-01-18T23:19:22.107Z,0.94
2019-01-18T23:22:29.812Z,0.90
2019-01-18T23:28:52.119Z,0.83
2019-01-18T23:31:44.639Z,0.81
2019-01-18T23:37:28.494Z,0.77
2019-01-18T23:40:36.217Z,0.72
2019-01-18T23:43:43.713Z,0.70
2019-01-18T23:46:51.429Z,0.70
2019-01-18T23:49:59.194Z,0.67
2019-01-18T23:53:06.999Z,0.66
2019-01-18T23:56:14.352Z,0.63
2019-01-18T23:59:07.903Z,0.64
